Time;durP1;ratioP1;P1;durP2;ratioP2;P2;SDS_P1;SDS_P2;PMS_P1;PMS_P2;Temp;Humidity;BMP_temperature;BMP_pressure;BME280_temperature;BME280_humidity;BME280_pressure;Samples;Min_cycle;Max_cycle;Signal;HPM_P1;HPM_P2
2021/12/04 00:00:11;;;;;;;80.43;29.23;;;6.50;99.90;;;;;;4954834;29;20053;-79
2021/12/04 00:02:37;;;;;;;82.38;29.58;;;6.50;99.90;;;;;;4954990;29;20046;-80
2021/12/04 00:05:05;;;;;;;69.15;25.92;;;6.50;99.90;;;;;;4955190;29;20047;-79
2021/12/04 00:07:32;;;;;;;76.05;27.73;;;6.50;99.90;;;;;;4955144;29;20106;-80
2021/12/04 00:10:03;;;;;;;75.13;27.75;;;6.50;99.90;;;;;;4955030;29;20063;-79
2021/12/04 00:12:31;;;;;;;73.80;28.13;;;6.40;99.90;;;;;;4939773;29;20055;-79
2021/12/04 00:14:57;;;;;;;72.55;26.67;;;6.20;99.90;;;;;;4938711;29;20121;-79
2021/12/04 00:17:22;;;;;;;65.13;27.10;;;6.10;99.90;;;;;;4953881;28;20503;-79
2021/12/04 00:19:48;;;;;;;88.88;29.73;;;6.10;99.90;;;;;;4954973;29;20050;-79
2021/12/04 00:22:14;;;;;;;89.90;30.17;;;6.20;99.90;;;;;;4939222;29;20051;-79
2021/12/04 00:24:39;;;;;;;91.00;30.70;;;6.30;99.90;;;;;;4938746;29;20498;-79
2021/12/04 00:27:05;;;;;;;99.32;30.92;;;6.30;99.90;;;;;;4954072;29;20094;-79
2021/12/04 00:29:31;;;;;;;100.35;31.02;;;6.30;99.90;;;;;;4954784;29;20048;-79
2021/12/04 00:32:33;;;;;;;67.43;26.45;;;6.30;99.90;;;;;;4954785;29;20047;-79
2021/12/04 00:34:55;;;;;;;73.00;27.92;;;6.30;99.90;;;;;;4954155;29;20059;-79
2021/12/04 00:43:23;;;;;;;106.47;30.35;;;6.20;99.90;;;;;;4954935;29;20465;-79
2021/12/04 00:51:18;;;;;;;112.50;32.13;;;6.30;99.90;;;;;;4954377;29;20058;-79
2021/12/04 00:53:43;;;;;;;100.35;32.08;;;6.30;99.90;;;;;;4954563;29;20392;-79
2021/12/04 00:56:09;;;;;;;110.55;30.92;;;6.30;99.90;;;;;;4938278;29;20046;-79
2021/12/04 00:58:35;;;;;;;132.32;33.30;;;6.30;99.90;;;;;;4954066;29;20093;-79
2021/12/04 01:01:01;;;;;;;73.93;28.75;;;6.30;99.90;;;;;;4954499;29;20451;-79
2021/12/04 01:03:27;;;;;;;106.35;33.00;;;6.30;99.90;;;;;;4954304;29;20078;-80
2021/12/04 01:05:52;;;;;;;128.95;35.60;;;6.30;99.90;;;;;;4954317;29;20043;-80
2021/12/04 01:08:18;;;;;;;70.07;27.65;;;6.40;99.90;;;;;;4954206;29;20129;-79
2021/12/04 01:10:44;;;;;;;123.13;34.10;;;6.40;99.90;;;;;;4954095;29;20051;-79
2021/12/04 01:13:12;;;;;;;133.60;34.95;;;6.50;99.90;;;;;;4954080;29;20137;-79
2021/12/04 01:15:40;;;;;;;82.88;29.15;;;6.50;99.90;;;;;;4954172;29;20047;-80
2021/12/04 01:18:05;;;;;;;113.82;34.22;;;6.50;99.90;;;;;;4954183;29;20058;-79
2021/12/04 01:20:31;;;;;;;75.55;29.55;;;6.40;99.90;;;;;;4953946;29;20051;-79
2021/12/04 01:22:57;;;;;;;78.60;28.60;;;6.50;99.90;;;;;;4953990;29;20047;-79
2021/12/04 01:25:23;;;;;;;90.15;29.67;;;6.50;99.90;;;;;;4954031;29;20053;-79
2021/12/04 01:27:49;;;;;;;99.03;31.02;;;6.40;99.90;;;;;;4954355;28;20402;-80
2021/12/04 01:30:14;;;;;;;82.68;27.17;;;6.50;99.90;;;;;;4957617;29;20051;-80
2021/12/04 01:32:40;;;;;;;80.68;28.20;;;6.30;99.90;;;;;;4958075;29;20051;-79
2021/12/04 01:35:06;;;;;;;112.40;30.63;;;6.40;99.90;;;;;;4957714;29;20055;-79
2021/12/04 01:37:32;;;;;;;83.65;28.92;;;6.40;99.90;;;;;;4957479;29;20078;-79
2021/12/04 01:39:58;;;;;;;88.85;29.30;;;6.40;99.90;;;;;;4957584;29;20046;-79
2021/12/04 01:42:23;;;;;;;71.65;28.98;;;6.50;99.90;;;;;;4957559;29;20411;-80
2021/12/04 01:44:50;;;;;;;75.88;26.88;;;6.60;99.90;;;;;;4957437;29;20047;-80
2021/12/04 01:47:21;;;;;;;65.88;25.55;;;6.60;99.90;;;;;;4957609;29;20134;-80
2021/12/04 01:49:52;;;;;;;67.20;26.67;;;6.50;99.90;;;;;;4957835;29;20051;-79
2021/12/04 01:52:18;;;;;;;64.57;25.27;;;6.30;99.90;;;;;;4957366;29;20047;-79
2021/12/04 01:54:45;;;;;;;67.32;25.45;;;6.30;99.90;;;;;;4941814;29;20055;-80
2021/12/04 01:57:16;;;;;;;77.65;26.20;;;6.40;99.90;;;;;;4940611;29;20182;-79
2021/12/04 01:59:43;;;;;;;66.15;24.98;;;6.40;99.90;;;;;;4957648;29;20106;-79
2021/12/04 02:02:10;;;;;;;85.47;26.88;;;6.30;99.90;;;;;;4957400;29;20089;-79
2021/12/04 02:04:36;;;;;;;79.20;25.90;;;6.30;99.90;;;;;;4957128;29;20047;-79
2021/12/04 02:07:04;;;;;;;61.42;25.13;;;6.30;99.90;;;;;;4957368;29;20051;-79
2021/12/04 02:09:33;;;;;;;68.35;24.13;;;6.40;99.90;;;;;;4941650;29;20055;-79
2021/12/04 02:11:59;;;;;;;104.70;28.02;;;6.30;99.90;;;;;;4941019;29;20051;-79
2021/12/04 02:14:25;;;;;;;85.40;26.60;;;6.40;99.90;;;;;;4941354;29;20061;-79
2021/12/04 02:16:51;;;;;;;65.18;23.48;;;6.50;99.90;;;;;;4956869;29;20130;-79
2021/12/04 02:19:18;;;;;;;85.13;25.50;;;6.60;99.90;;;;;;4957199;29;20098;-79
2021/12/04 02:21:43;;;;;;;73.20;24.85;;;6.60;99.90;;;;;;4956918;29;20091;-79
2021/12/04 02:24:10;;;;;;;70.35;24.88;;;6.60;99.90;;;;;;4957110;29;20074;-79
2021/12/04 02:26:35;;;;;;;70.70;23.73;;;6.50;99.90;;;;;;4940369;29;20051;-79
2021/12/04 02:29:01;;;;;;;69.05;24.60;;;6.40;99.90;;;;;;4956668;29;20114;-80
2021/12/04 02:31:27;;;;;;;76.45;25.25;;;6.50;99.90;;;;;;4956772;29;20047;-79
2021/12/04 02:33:53;;;;;;;67.35;23.83;;;6.40;99.90;;;;;;4956777;29;20094;-79
2021/12/04 02:36:20;;;;;;;70.70;22.77;;;6.60;99.90;;;;;;4956942;29;20101;-79
2021/12/04 02:38:51;;;;;;;60.40;23.25;;;6.50;99.90;;;;;;4940241;28;20047;-79
2021/12/04 02:41:21;;;;;;;64.68;22.17;;;6.40;99.90;;;;;;4940645;29;20062;-79
2021/12/04 02:43:47;;;;;;;131.70;30.08;;;6.50;99.90;;;;;;4956527;29;20106;-79
2021/12/04 02:46:17;;;;;;;58.08;22.65;;;6.50;99.90;;;;;;4956731;29;20051;-79
2021/12/04 02:48:45;;;;;;;76.95;24.35;;;6.50;99.90;;;;;;4956315;29;20542;-79
2021/12/04 02:51:14;;;;;;;77.43;23.98;;;6.50;99.90;;;;;;4940571;29;20121;-79
2021/12/04 02:53:39;;;;;;;59.08;22.65;;;6.50;99.90;;;;;;4956575;29;20055;-80
2021/12/04 02:56:06;;;;;;;63.85;23.02;;;6.30;99.90;;;;;;4924546;29;20506;-80
2021/12/04 02:58:33;;;;;;;63.65;22.13;;;6.40;99.90;;;;;;4940338;29;20086;-79
2021/12/04 03:01:01;;;;;;;70.40;23.98;;;6.40;99.90;;;;;;4956191;29;20087;-79
2021/12/04 03:03:27;;;;;;;61.75;23.52;;;6.20;99.90;;;;;;4940652;29;20059;-79
2021/12/04 03:05:53;;;;;;;55.00;20.83;;;6.20;99.90;;;;;;4955994;29;20047;-80
2021/12/04 03:08:19;;;;;;;95.13;24.95;;;6.40;99.90;;;;;;4956114;29;20043;-79
2021/12/04 03:10:47;;;;;;;53.63;20.45;;;6.50;99.90;;;;;;4940299;29;20048;-79
2021/12/04 03:13:15;;;;;;;56.63;21.52;;;6.50;99.90;;;;;;4955786;29;20418;-79
2021/12/04 03:15:44;;;;;;;53.13;19.92;;;6.20;99.90;;;;;;4956024;29;20499;-79
2021/12/04 03:18:10;;;;;;;46.55;20.23;;;6.40;99.90;;;;;;4955754;29;20055;-79
2021/12/04 03:20:42;;;;;;;54.92;21.00;;;6.50;99.90;;;;;;4955785;29;20142;-79
2021/12/04 03:23:16;;;;;;;44.33;18.38;;;6.30;99.90;;;;;;4940211;29;20142;-79
2021/12/04 03:25:44;;;;;;;45.83;18.50;;;6.20;99.90;;;;;;4940049;29;20053;-79
2021/12/04 03:28:12;;;;;;;55.47;20.45;;;6.20;99.90;;;;;;4955124;29;20054;-79
2021/12/04 03:30:45;;;;;;;64.35;20.77;;;6.20;99.90;;;;;;4940400;29;20399;-79
2021/12/04 03:41:13;;;;;;;40.53;17.83;;;6.30;99.90;;;;;;4955415;29;20050;-79
2021/12/04 03:43:38;;;;;;;45.27;17.53;;;6.30;99.90;;;;;;4941900;29;20505;-79
2021/12/04 03:46:06;;;;;;;40.35;16.85;;;6.20;99.90;;;;;;4955597;29;20494;-79
2021/12/04 03:51:00;;;;;;;46.65;19.10;;;6.20;99.90;;;;;;4955394;28;20151;-79
2021/12/04 03:53:27;;;;;;;42.85;17.17;;;6.30;99.90;;;;;;4955228;29;20051;-79
2021/12/04 03:55:52;;;;;;;42.13;16.55;;;6.30;99.90;;;;;;4955270;29;20043;-79
2021/12/04 03:58:19;;;;;;;58.97;18.40;;;6.30;99.90;;;;;;4938887;29;20454;-79
2021/12/04 04:00:45;;;;;;;40.97;16.85;;;6.20;99.90;;;;;;4955340;29;20066;-79
2021/12/04 04:03:11;;;;;;;44.38;17.00;;;6.20;99.90;;;;;;4955135;29;20081;-79
2021/12/04 04:05:37;;;;;;;40.42;16.52;;;6.20;99.90;;;;;;4955282;29;20082;-79
2021/12/04 04:08:03;;;;;;;47.10;17.02;;;6.20;99.90;;;;;;4939523;29;20047;-79
2021/12/04 04:10:28;;;;;;;39.38;15.40;;;6.20;99.90;;;;;;4938936;29;20056;-79
2021/12/04 04:12:54;;;;;;;41.90;17.00;;;6.20;99.90;;;;;;4954782;29;20120;-79
2021/12/04 04:15:21;;;;;;;42.22;17.10;;;6.20;99.90;;;;;;4939113;29;20403;-79
2021/12/04 04:17:48;;;;;;;52.17;18.90;;;6.20;99.90;;;;;;4954544;29;20566;-79
2021/12/04 04:20:17;;;;;;;37.50;16.73;;;6.20;99.90;;;;;;4955401;29;20057;-79
2021/12/04 04:22:44;;;;;;;40.55;16.67;;;6.20;99.90;;;;;;4939035;29;20079;-79
2021/12/04 04:25:12;;;;;;;44.45;17.70;;;6.00;99.90;;;;;;4954625;29;20058;-79
2021/12/04 04:27:38;;;;;;;60.22;18.88;;;6.20;99.90;;;;;;4954020;29;20055;-79
2021/12/04 04:30:06;;;;;;;39.88;16.73;;;6.30;99.90;;;;;;4955064;29;20055;-79
2021/12/04 04:32:33;;;;;;;46.70;17.45;;;6.30;99.90;;;;;;4954657;29;20487;-79
2021/12/04 04:35:08;;;;;;;61.83;19.08;;;6.30;99.90;;;;;;4954507;29;20478;-79
2021/12/04 05:10:40;;;;;;;39.80;15.27;;;6.50;99.90;;;;;;4931124;29;20206;-79
2021/12/04 05:13:02;;;;;;;35.27;15.87;;;6.40;99.90;;;;;;4929491;29;20146;-79
2021/12/04 05:18:34;;;;;;;35.22;15.55;;;6.60;99.90;;;;;;4961016;29;20403;-79
2021/12/04 05:21:06;;;;;;;35.88;15.10;;;6.50;99.90;;;;;;4960571;28;20534;-79
2021/12/04 05:23:40;;;;;;;35.17;14.93;;;6.50;99.90;;;;;;4960660;29;20406;-79
2021/12/04 05:26:10;;;;;;;32.13;14.15;;;6.50;99.90;;;;;;4960728;28;20494;-79
2021/12/04 05:28:35;;;;;;;38.13;15.10;;;6.40;99.90;;;;;;4943565;29;20065;-79
2021/12/04 05:31:01;;;;;;;38.40;15.48;;;6.40;99.90;;;;;;4960914;28;20130;-79
2021/12/04 05:33:27;;;;;;;39.70;15.82;;;6.40;99.90;;;;;;4960342;29;20062;-79
2021/12/04 05:35:53;;;;;;;36.08;15.50;;;6.50;99.90;;;;;;4960377;28;20069;-79
2021/12/04 05:38:20;;;;;;;35.25;14.18;;;6.50;99.90;;;;;;4960248;28;20140;-79
2021/12/04 05:40:46;;;;;;;39.95;15.52;;;6.70;99.90;;;;;;4960675;28;20142;-79
2021/12/04 05:43:12;;;;;;;38.63;15.25;;;6.40;99.90;;;;;;4944533;29;20142;-79
2021/12/04 05:45:47;;;;;;;35.55;14.40;;;6.30;99.90;;;;;;4960333;29;20483;-79
2021/12/04 05:48:28;;;;;;;42.47;15.55;;;6.40;99.90;;;;;;4960297;28;20055;-79
2021/12/04 05:53:44;;;;;;;34.83;14.43;;;6.00;99.90;;;;;;4960305;29;20062;-79
2021/12/04 05:56:10;;;;;;;31.88;13.45;;;6.10;99.90;;;;;;4945355;29;20055;-78
2021/12/04 05:58:37;;;;;;;37.58;13.88;;;6.20;99.90;;;;;;4959750;29;20074;-79
2021/12/04 06:01:05;;;;;;;43.70;15.50;;;6.00;99.90;;;;;;4960425;28;20086;-79
2021/12/04 06:03:31;;;;;;;37.70;14.75;;;6.10;99.90;;;;;;4944348;29;20135;-79
2021/12/04 06:05:57;;;;;;;37.03;14.82;;;6.00;99.90;;;;;;4960733;28;20443;-79
2021/12/04 06:08:23;;;;;;;32.60;13.05;;;6.00;99.90;;;;;;4960019;29;20047;-79
2021/12/04 06:10:51;;;;;;;37.42;14.60;;;6.10;99.90;;;;;;4960396;28;20043;-78
2021/12/04 06:13:17;;;;;;;41.20;15.30;;;6.20;99.90;;;;;;4959842;28;20058;-79
2021/12/04 06:15:43;;;;;;;39.47;15.10;;;6.20;99.90;;;;;;4939823;29;20434;-79
2021/12/04 06:18:09;;;;;;;37.88;14.55;;;6.30;99.90;;;;;;4956914;29;20114;-79
2021/12/04 06:23:21;;;;;;;28.23;12.63;;;6.30;99.90;;;;;;4957020;29;20059;-79
2021/12/04 06:25:47;;;;;;;49.30;15.85;;;6.20;99.90;;;;;;4956863;29;20134;-79
2021/12/04 06:28:14;;;;;;;35.33;13.57;;;6.10;99.90;;;;;;4956109;29;20150;-79
2021/12/04 06:30:42;;;;;;;34.65;13.57;;;6.10;99.90;;;;;;4956745;29;20510;-79
2021/12/04 06:33:10;;;;;;;41.63;15.68;;;6.00;99.90;;;;;;4925549;29;20082;-79
2021/12/04 06:35:40;;;;;;;41.35;15.07;;;6.00;99.90;;;;;;4956713;29;20043;-79
2021/12/04 06:38:07;;;;;;;42.88;15.40;;;6.10;99.90;;;;;;4956536;29;20047;-79
2021/12/04 06:40:34;;;;;;;44.95;15.18;;;6.10;99.90;;;;;;4956863;29;20110;-78
2021/12/04 06:43:01;;;;;;;40.42;15.00;;;6.00;99.90;;;;;;4956650;29;20166;-79
2021/12/04 06:45:29;;;;;;;44.67;16.67;;;5.90;99.90;;;;;;4956865;29;20047;-78
2021/12/04 06:47:58;;;;;;;47.25;14.80;;;6.00;99.90;;;;;;4956438;29;20063;-78
2021/12/04 06:50:36;;;;;;;39.30;14.75;;;6.10;99.90;;;;;;4956922;29;20059;-79
2021/12/04 06:53:12;;;;;;;38.80;14.60;;;6.10;99.90;;;;;;4956112;29;20549;-79
2021/12/04 06:55:41;;;;;;;38.90;15.13;;;6.20;99.90;;;;;;4940536;29;20368;-79
2021/12/04 06:58:08;;;;;;;47.88;15.85;;;6.20;99.90;;;;;;4955698;29;20120;-79
2021/12/04 07:00:34;;;;;;;41.83;15.38;;;6.10;99.90;;;;;;4956310;29;20085;-79
2021/12/04 07:03:00;;;;;;;45.47;15.32;;;6.10;99.90;;;;;;4956559;29;20055;-79
2021/12/04 07:05:26;;;;;;;51.35;17.35;;;6.20;99.90;;;;;;4956106;29;20063;-79
2021/12/04 07:07:51;;;;;;;43.88;16.63;;;6.10;99.90;;;;;;4940358;29;20460;-78
2021/12/04 07:10:17;;;;;;;56.83;17.50;;;6.10;99.90;;;;;;4956132;29;20130;-79
2021/12/04 07:12:43;;;;;;;44.83;16.00;;;6.10;99.90;;;;;;4956182;29;20043;-78
2021/12/04 07:15:11;;;;;;;51.88;17.52;;;6.20;99.90;;;;;;4956329;29;20085;-78
2021/12/04 07:17:37;;;;;;;52.03;16.60;;;5.90;99.90;;;;;;4955776;29;20051;-79
2021/12/04 07:20:05;;;;;;;49.10;16.00;;;5.80;99.90;;;;;;4924287;29;20364;-78
2021/12/04 07:22:30;;;;;;;60.00;18.00;;;5.90;99.90;;;;;;4955897;29;20122;-79
2021/12/04 07:24:57;;;;;;;62.38;15.93;;;5.80;99.90;;;;;;4956034;28;20432;-78
2021/12/04 07:27:23;;;;;;;51.70;17.05;;;5.90;99.90;;;;;;4955077;29;20090;-78
2021/12/04 07:29:49;;;;;;;60.10;18.33;;;6.00;99.90;;;;;;4955994;29;20470;-78
2021/12/04 07:32:15;;;;;;;56.88;17.98;;;6.20;99.90;;;;;;4939688;29;20138;-78
2021/12/04 07:34:41;;;;;;;49.15;17.00;;;6.10;99.90;;;;;;4939622;29;20134;-79
2021/12/04 07:37:06;;;;;;;54.63;17.20;;;6.10;99.90;;;;;;4955642;29;20478;-79
2021/12/04 07:39:32;;;;;;;63.15;17.65;;;6.20;99.90;;;;;;4939704;29;20479;-79
2021/12/04 07:41:58;;;;;;;67.95;18.13;;;6.10;99.90;;;;;;4956137;29;20403;-78
2021/12/04 07:44:24;;;;;;;40.45;15.82;;;6.20;99.90;;;;;;4939434;29;20134;-78
2021/12/04 07:46:49;;;;;;;37.42;15.88;;;6.30;99.90;;;;;;4955786;29;20047;-79
2021/12/04 07:49:15;;;;;;;42.70;16.17;;;6.20;99.90;;;;;;4955395;29;20083;-78
2021/12/04 07:51:41;;;;;;;50.92;16.20;;;6.10;99.90;;;;;;4939416;29;20050;-79
2021/12/04 07:54:08;;;;;;;67.93;17.60;;;6.00;99.90;;;;;;4923638;29;20043;-78
2021/12/04 07:56:33;;;;;;;49.35;16.27;;;5.90;99.90;;;;;;4955044;29;20055;-79
2021/12/04 07:58:59;;;;;;;51.33;16.50;;;5.90;99.90;;;;;;4955087;29;20110;-79
2021/12/04 08:01:25;;;;;;;73.50;19.65;;;5.90;99.90;;;;;;4939089;29;20043;-79
2021/12/04 08:03:51;;;;;;;40.22;15.27;;;6.10;99.90;;;;;;4955349;29;20083;-79
2021/12/04 08:06:17;;;;;;;36.53;14.88;;;6.20;99.90;;;;;;4954793;29;20171;-79
2021/12/04 08:08:43;;;;;;;53.50;16.35;;;6.20;99.90;;;;;;4955342;29;20043;-79
2021/12/04 08:11:09;;;;;;;32.50;14.90;;;6.00;99.90;;;;;;4938889;29;20054;-79
2021/12/04 08:13:34;;;;;;;49.33;15.43;;;6.10;99.90;;;;;;4954949;29;20051;-79
2021/12/04 08:16:00;;;;;;;43.83;14.98;;;6.10;99.90;;;;;;4954844;29;20090;-79
2021/12/04 08:18:26;;;;;;;37.13;14.40;;;6.20;99.90;;;;;;4938848;29;20047;-79
2021/12/04 08:20:52;;;;;;;42.33;15.15;;;6.20;99.90;;;;;;4954791;29;20051;-79
2021/12/04 08:23:18;;;;;;;39.88;13.98;;;5.90;99.90;;;;;;4938940;29;20054;-78
2021/12/04 08:25:45;;;;;;;55.60;16.58;;;5.90;99.90;;;;;;4955033;29;20106;-78
2021/12/04 08:28:11;;;;;;;40.83;14.88;;;5.90;99.90;;;;;;4938077;29;20051;-79
2021/12/04 08:30:40;;;;;;;30.42;13.45;;;5.90;99.90;;;;;;4938697;29;20055;-78
2021/12/04 08:33:07;;;;;;;33.08;13.48;;;5.90;99.90;;;;;;4939022;29;20097;-79
2021/12/04 08:35:38;;;;;;;32.42;13.80;;;5.80;99.90;;;;;;4922824;29;20122;-78
2021/12/04 08:38:08;;;;;;;34.50;14.05;;;5.80;99.90;;;;;;4954003;28;20086;-79
2021/12/04 08:40:35;;;;;;;43.22;14.00;;;5.80;99.90;;;;;;4954786;29;20043;-76
2021/12/04 08:43:00;;;;;;;41.45;14.60;;;5.90;99.90;;;;;;4938671;29;20395;-75
2021/12/04 08:45:26;;;;;;;29.20;12.98;;;6.10;99.90;;;;;;4954373;29;20058;-75
2021/12/04 08:47:53;;;;;;;28.90;12.77;;;6.00;99.90;;;;;;4955562;28;20052;-74
2021/12/04 08:50:25;;;;;;;29.20;11.52;;;6.00;99.90;;;;;;4954301;29;20047;-73
2021/12/04 08:52:52;;;;;;;31.33;12.77;;;6.00;99.90;;;;;;4954429;29;20055;-73
2021/12/04 08:55:18;;;;;;;37.70;13.90;;;6.10;99.90;;;;;;4954848;29;20058;-72
2021/12/04 08:57:44;;;;;;;30.67;12.95;;;6.10;99.90;;;;;;4961628;28;20051;-73
2021/12/04 09:00:17;;;;;;;32.63;11.27;;;6.10;99.90;;;;;;4938466;29;20062;-71
2021/12/04 09:02:43;;;;;;;30.98;11.65;;;6.00;99.90;;;;;;4954108;29;20499;-71
2021/12/04 09:05:13;;;;;;;44.50;12.55;;;5.90;99.90;;;;;;4954536;29;20039;-71
2021/12/04 09:07:39;;;;;;;28.25;11.27;;;6.10;99.90;;;;;;4954369;29;20059;-71
2021/12/04 09:10:06;;;;;;;28.25;11.30;;;6.20;99.90;;;;;;4954385;29;20506;-71
2021/12/04 09:12:33;;;;;;;26.83;10.88;;;6.20;99.90;;;;;;4938494;29;20047;-73
2021/12/04 09:15:00;;;;;;;32.35;11.55;;;6.20;99.90;;;;;;4954177;29;20047;-75
2021/12/04 09:17:26;;;;;;;23.08;10.23;;;6.40;99.90;;;;;;4955304;29;20048;-73
2021/12/04 09:19:51;;;;;;;29.63;11.43;;;6.40;99.90;;;;;;4954220;29;20138;-74
2021/12/04 09:22:25;;;;;;;27.98;11.40;;;6.40;99.90;;;;;;4954290;29;20497;-74
2021/12/04 09:24:55;;;;;;;27.15;11.73;;;6.50;99.90;;;;;;4954207;29;20106;-73
2021/12/04 09:59:14;;;;;;;18.17;9.25;;;6.40;99.90;;;;;;4954057;29;20113;-74
2021/12/04 10:02:47;;;;;;;19.15;10.30;;;6.70;99.90;;;;;;4957422;29;20083;-73
2021/12/04 10:18:59;;;;;;;21.92;11.05;;;6.90;99.90;;;;;;4957326;28;20407;-71
2021/12/04 10:21:35;;;;;;;21.30;10.82;;;6.90;99.90;;;;;;4957063;29;20429;-72
2021/12/04 10:34:43;;;;;;;23.20;11.13;;;7.00;99.90;;;;;;4956956;29;20399;-74
2021/12/04 10:37:13;;;;;;;20.83;10.27;;;7.10;99.90;;;;;;4940972;29;20064;-74
2021/12/04 10:39:40;;;;;;;18.63;10.07;;;7.10;99.90;;;;;;4956925;29;20083;-74
2021/12/04 10:42:15;;;;;;;19.08;10.80;;;7.00;99.90;;;;;;4956617;29;20047;-74
2021/12/04 10:44:47;;;;;;;20.27;10.00;;;7.10;99.90;;;;;;4956906;29;20134;-74
2021/12/04 10:47:17;;;;;;;21.30;9.25;;;7.10;99.90;;;;;;4956495;29;20117;-74
2021/12/04 10:55:12;;;;;;;19.48;10.02;;;7.10;99.90;;;;;;4956522;29;20058;-74
2021/12/04 11:06:17;;;;;;;17.50;9.52;;;6.90;99.90;;;;;;4956465;29;20153;-76
2021/12/04 11:18:41;;;;;;;16.80;9.07;;;6.70;99.90;;;;;;4946145;29;20047;-75
2021/12/04 11:25:27;;;;;;;19.63;9.70;;;6.90;99.90;;;;;;4939969;29;20522;-78
2021/12/04 11:44:05;;;;;;;20.83;10.35;;;7.40;99.90;;;;;;4955734;29;20055;-73
2021/12/04 11:46:42;;;;;;;20.65;10.70;;;7.50;99.90;;;;;;4955384;29;20062;-74
2021/12/04 11:49:12;;;;;;;18.85;9.57;;;7.50;99.90;;;;;;4939738;29;20059;-74
2021/12/04 11:51:48;;;;;;;17.83;8.80;;;7.50;99.90;;;;;;4955598;28;20050;-74
2021/12/04 11:54:16;;;;;;;16.98;8.93;;;7.40;99.90;;;;;;4955995;29;20410;-74
2021/12/04 11:56:42;;;;;;;16.55;8.98;;;7.50;99.90;;;;;;4955157;28;20126;-74
2021/12/04 11:59:08;;;;;;;21.80;10.88;;;7.40;99.90;;;;;;4955072;28;20050;-74
2021/12/04 12:01:37;;;;;;;22.13;10.00;;;7.50;99.90;;;;;;4955200;29;20130;-74
2021/12/04 12:04:09;;;;;;;22.63;10.27;;;7.30;99.90;;;;;;4954861;29;20514;-74
2021/12/04 12:06:38;;;;;;;23.77;10.75;;;7.20;99.90;;;;;;4957555;29;20126;-76
2021/12/04 12:09:14;;;;;;;21.77;10.77;;;7.00;99.90;;;;;;4957514;28;20055;-73
2021/12/04 12:12:00;;;;;;;27.98;11.75;;;7.10;99.90;;;;;;4954953;28;20476;-75
2021/12/04 12:14:39;;;;;;;30.05;13.02;;;7.20;99.90;;;;;;4954793;29;20051;-74
2021/12/04 12:17:06;;;;;;;24.23;11.30;;;7.20;99.90;;;;;;4954866;29;20047;-73
2021/12/04 12:19:40;;;;;;;23.33;10.98;;;7.20;99.90;;;;;;4954769;29;20406;-74
2021/12/04 12:22:22;;;;;;;23.27;11.60;;;7.20;99.90;;;;;;4955863;28;20054;-74
2021/12/04 12:27:50;;;;;;;26.55;11.02;;;7.30;99.90;;;;;;4938466;29;20106;-73
2021/12/04 12:33:37;;;;;;;25.90;11.15;;;7.30;99.90;;;;;;4954798;29;20407;-74
2021/12/04 12:36:03;;;;;;;26.35;11.73;;;7.40;99.90;;;;;;4954105;29;20061;-73
2021/12/04 12:38:52;;;;;;;27.33;11.25;;;7.30;99.90;;;;;;4955658;28;20047;-72
2021/12/04 12:41:39;;;;;;;27.80;11.07;;;7.40;99.90;;;;;;4955816;28;20059;-74
2021/12/04 12:44:23;;;;;;;25.67;11.82;;;7.60;99.90;;;;;;4955703;28;20406;-73
2021/12/04 12:46:56;;;;;;;28.55;13.00;;;7.70;99.90;;;;;;4955885;29;20039;-74
2021/12/04 12:49:39;;;;;;;26.40;11.38;;;7.60;99.90;;;;;;4955555;28;20384;-75
2021/12/04 12:52:09;;;;;;;27.15;11.90;;;7.50;99.90;;;;;;4954490;29;20451;-74
2021/12/04 12:54:44;;;;;;;29.27;12.35;;;7.30;99.90;;;;;;4955563;28;20054;-74
2021/12/04 12:57:24;;;;;;;18.02;7.90;;;7.40;99.90;;;;;;4954082;29;20403;-90
2021/12/04 13:14:19;;;;;;;32.70;14.20;;;7.10;99.90;;;;;;4954406;29;20810;-73
2021/12/04 13:16:49;;;;;;;32.85;14.02;;;7.20;99.90;;;;;;4954419;29;20055;-73
2021/12/04 13:19:18;;;;;;;32.58;14.45;;;7.40;99.90;;;;;;4938117;29;20069;-73
2021/12/04 13:21:48;;;;;;;38.42;16.60;;;7.40;99.90;;;;;;4954467;29;20055;-72
2021/12/04 13:24:15;;;;;;;35.72;14.48;;;7.40;99.90;;;;;;4955522;28;20047;-74
2021/12/04 13:26:46;;;;;;;31.95;13.30;;;7.30;99.90;;;;;;4958196;29;20051;-79
2021/12/04 13:29:14;;;;;;;32.38;15.10;;;7.30;99.90;;;;;;4957550;29;20055;-79
2021/12/04 13:31:40;;;;;;;34.42;15.27;;;7.50;99.90;;;;;;4957913;29;20122;-74
2021/12/04 13:34:11;;;;;;;40.45;16.80;;;7.60;99.90;;;;;;4959168;29;20542;-74
2021/12/04 13:36:38;;;;;;;39.80;18.40;;;7.70;99.90;;;;;;4957869;29;20395;-74
2021/12/04 13:39:10;;;;;;;37.97;16.08;;;7.50;99.90;;;;;;4957913;29;20562;-74
2021/12/04 13:41:38;;;;;;;44.83;18.98;;;7.60;99.90;;;;;;4955203;29;20073;-77
2021/12/04 13:44:06;;;;;;;57.10;21.67;;;7.60;99.90;;;;;;4955983;29;20407;-75
2021/12/04 13:46:47;;;;;;;47.83;18.00;;;7.40;99.90;;;;;;4957653;29;20047;-75
2021/12/04 13:49:39;;;;;;;41.33;18.35;;;7.40;99.90;;;;;;4957544;29;20055;-74
2021/12/04 13:52:12;;;;;;;48.03;18.70;;;7.30;99.90;;;;;;4957604;29;20043;-74
2021/12/04 13:54:48;;;;;;;48.97;19.33;;;7.30;99.90;;;;;;4958293;28;20051;-74
2021/12/04 13:57:14;;;;;;;;;;;7.30;99.90;;;;;;4957654;29;20106;-77
2021/12/04 13:59:41;;;;;;;45.70;18.33;;;7.30;99.90;;;;;;4957707;29;19923;-74
2021/12/04 14:02:21;;;;;;;50.63;19.25;;;7.40;99.90;;;;;;4957449;29;20047;-74
2021/12/04 14:05:17;;;;;;;43.85;18.35;;;7.50;99.90;;;;;;4957543;29;20102;-74
2021/12/04 14:07:56;;;;;;;59.20;20.80;;;7.60;99.90;;;;;;4956953;29;20742;-74
2021/12/04 14:10:29;;;;;;;52.13;19.35;;;7.70;99.90;;;;;;4957325;29;20059;-74
2021/12/04 14:12:57;;;;;;;60.40;20.33;;;7.70;99.90;;;;;;4957485;29;20047;-74
2021/12/04 14:15:24;;;;;;;54.42;18.98;;;7.60;99.90;;;;;;4957211;29;20051;-74
2021/12/04 14:17:56;;;;;;;61.03;20.73;;;7.60;99.90;;;;;;4956901;29;20483;-74
2021/12/04 14:20:24;;;;;;;57.10;21.25;;;7.50;99.90;;;;;;4957003;29;20395;-74
2021/12/04 14:22:51;;;;;;;51.95;20.10;;;7.60;99.90;;;;;;4957269;29;20103;-74
2021/12/04 14:25:19;;;;;;;68.40;23.35;;;7.60;99.90;;;;;;4941027;29;20063;-73
2021/12/04 14:27:46;;;;;;;56.47;21.35;;;7.70;99.90;;;;;;4956205;29;20051;-74
2021/12/04 14:30:15;;;;;;;63.88;23.80;;;7.70;99.90;;;;;;4957145;29;20502;-73
2021/12/04 14:32:43;;;;;;;65.38;23.50;;;7.70;99.90;;;;;;4956866;29;20094;-73
2021/12/04 14:35:16;;;;;;;52.33;20.63;;;7.80;99.90;;;;;;4940131;29;20059;-81
2021/12/04 14:37:48;;;;;;;54.65;20.65;;;7.70;99.90;;;;;;4956677;29;20050;-76
2021/12/04 14:40:41;;;;;;;53.20;19.63;;;7.70;99.90;;;;;;4956962;29;20054;-77
2021/12/04 14:43:09;;;;;;;51.40;20.02;;;7.80;99.90;;;;;;4956685;29;20051;-76
2021/12/04 14:45:36;;;;;;;49.90;19.42;;;7.80;99.90;;;;;;4956700;29;20089;-75
2021/12/04 14:48:06;;;;;;;52.72;19.98;;;7.90;99.90;;;;;;4956907;29;20051;-76
2021/12/04 14:50:37;;;;;;;55.70;20.10;;;7.70;99.90;;;;;;4940536;29;20051;-76
2021/12/04 14:53:04;;;;;;;60.60;19.73;;;7.80;99.90;;;;;;4957017;29;20090;-75
2021/12/04 14:55:33;;;;;;;54.03;20.60;;;7.90;99.90;;;;;;4956242;29;20039;-75
2021/12/04 14:58:00;;;;;;;52.97;20.23;;;7.90;99.90;;;;;;4956019;29;20499;-75
2021/12/04 15:00:32;;;;;;;58.47;20.88;;;8.00;99.90;;;;;;4956629;29;20054;-75
2021/12/04 15:03:09;;;;;;;50.47;20.48;;;7.90;99.90;;;;;;4956482;29;20183;-76
2021/12/04 15:05:44;;;;;;;59.00;20.95;;;7.70;99.90;;;;;;4940705;29;20368;-76
2021/12/04 15:08:14;;;;;;;45.40;17.95;;;7.80;99.90;;;;;;4956204;29;20058;-76
2021/12/04 15:10:42;;;;;;;46.05;18.92;;;7.60;99.90;;;;;;4956525;29;20051;-76
2021/12/04 15:13:18;;;;;;;59.40;21.73;;;7.60;99.90;;;;;;4956100;29;20498;-76
2021/12/04 15:15:45;;;;;;;50.80;19.42;;;7.70;99.90;;;;;;4956139;29;20589;-76
2021/12/04 15:18:13;;;;;;;52.17;20.55;;;7.70;99.90;;;;;;4955723;29;20517;-76
2021/12/04 15:20:47;;;;;;;55.03;20.83;;;7.80;99.90;;;;;;4956005;29;20051;-77
2021/12/04 15:23:20;;;;;;;59.67;21.27;;;7.90;99.90;;;;;;4956028;29;20380;-76
2021/12/04 15:25:48;;;;;;;51.20;21.15;;;7.70;99.90;;;;;;4956837;28;20051;-77
2021/12/04 15:28:19;;;;;;;58.00;21.88;;;7.70;99.90;;;;;;4955247;29;20423;-76
2021/12/04 15:30:48;;;;;;;65.28;23.00;;;7.80;99.90;;;;;;4955819;29;20059;-77
2021/12/04 15:33:28;;;;;;;55.25;21.27;;;7.80;99.90;;;;;;4939708;29;20051;-77
2021/12/04 15:35:55;;;;;;;56.13;21.30;;;7.70;99.90;;;;;;4940133;29;20132;-76
2021/12/04 15:38:43;;;;;;;55.65;22.75;;;7.70;99.90;;;;;;4955210;29;20051;-76
2021/12/04 15:41:29;;;;;;;57.75;21.90;;;7.50;99.90;;;;;;4955865;29;20132;-77
2021/12/04 15:55:07;;;;;;;61.58;23.08;;;7.80;99.90;;;;;;4951864;29;20663;-81
2021/12/04 15:57:34;;;;;;;52.63;20.30;;;7.80;99.90;;;;;;4945770;29;20043;-91
2021/12/04 16:00:11;;;;;;;52.05;21.08;;;7.80;99.90;;;;;;4955766;29;20102;-90
2021/12/04 16:02:43;;;;;;;66.57;22.73;;;7.80;99.90;;;;;;4936299;29;20051;-90